TW-0020 weather

Shuang Ho Hospital Heliport
New Taipei City, Taipei County, Taiwan

Public forecast

Using degrees Celsius for public forecast. Weather courtesy of forecast.io.

Closest aviation weather report (METAR) to Shuang Ho Hospital Heliport

Closest report is Taipei Songshan Airport, 5.6 nm (10.4 km) NE. Retrieved 2020/04/02 06:00 UTC (1 minute ago):

RCSS 020600Z 07012KT 9999 FEW012 BKN025 BKN080 21/18 Q1016 NOSIG RMK A3002

Closest aviation forecast (TAF) to Shuang Ho Hospital Heliport

Closest forecast is Taipei Songshan Airport, 5.6 nm (10.4 km) NE. Retrieved 2020/04/02 06:00 UTC (1 minute ago):

TAF RCSS 020500Z 0206/0306 09005KT 7000 FEW015 BKN032 TEMPO 0206/0212 09012KT TEMPO 0209/0215 3500 SHRA SCT006 FEW010CB BKN017 TEMPO 0217/0221 35005KT 4000 SHRA SCT008 BKN012CB BKN017 TEMPO 0221/0303 FEW010 BKN020